sensor_id;sensor_type;location;lat;lon;timestamp;pressure;altitude;pressure_sealevel;temperature;humidity
55263;BME280;41125;48.752;9.168;2023-04-07T00:00:34;96858.63;;;4.94;88.98
55263;BME280;41125;48.752;9.168;2023-04-07T00:01:06;96867.25;;;4.96;88.23
55263;BME280;41125;48.752;9.168;2023-04-07T00:01:39;96861.88;;;4.96;88.40
55263;BME280;41125;48.752;9.168;2023-04-07T00:02:10;96864.56;;;4.96;89.04
55263;BME280;41125;48.752;9.168;2023-04-07T00:02:42;96864.56;;;4.96;89.18
55263;BME280;41125;48.752;9.168;2023-04-07T00:03:13;96861.06;;;4.95;89.57
55263;BME280;41125;48.752;9.168;2023-04-07T00:03:44;96857.56;;;4.95;90.22
55263;BME280;41125;48.752;9.168;2023-04-07T00:04:17;96858.63;;;4.94;89.60
55263;BME280;41125;48.752;9.168;2023-04-07T00:04:49;96857.00;;;4.93;89.60
55263;BME280;41125;48.752;9.168;2023-04-07T00:05:21;96857.00;;;4.93;89.47
55263;BME280;41125;48.752;9.168;2023-04-07T00:05:52;96858.88;;;4.92;89.97
55263;BME280;41125;48.752;9.168;2023-04-07T00:06:25;96859.13;;;4.91;89.47
55263;BME280;41125;48.752;9.168;2023-04-07T00:06:57;96857.53;;;4.90;89.12
55263;BME280;41125;48.752;9.168;2023-04-07T00:07:28;96853.75;;;4.91;88.62
55263;BME280;41125;48.752;9.168;2023-04-07T00:07:59;96856.44;;;4.91;89.69
55263;BME280;41125;48.752;9.168;2023-04-07T00:08:34;96859.94;;;4.91;88.95
55263;BME280;41125;48.752;9.168;2023-04-07T00:09:06;96860.75;;;4.92;89.47
55263;BME280;41125;48.752;9.168;2023-04-07T00:09:37;96857.53;;;4.90;90.55
55263;BME280;41125;48.752;9.168;2023-04-07T00:10:10;96860.22;;;4.90;90.60
55263;BME280;41125;48.752;9.168;2023-04-07T00:10:42;96855.91;;;4.89;90.65
55263;BME280;41125;48.752;9.168;2023-04-07T00:11:13;96855.09;;;4.88;90.98
55263;BME280;41125;48.752;9.168;2023-04-07T00:11:45;96855.09;;;4.88;90.31
55263;BME280;41125;48.752;9.168;2023-04-07T00:12:16;96852.41;;;4.88;90.86
55263;BME280;41125;48.752;9.168;2023-04-07T00:12:47;96852.13;;;4.90;90.17
55263;BME280;41125;48.752;9.168;2023-04-07T00:13:18;96860.22;;;4.90;90.47
55263;BME280;41125;48.752;9.168;2023-04-07T00:13:50;96852.13;;;4.90;90.95
55263;BME280;41125;48.752;9.168;2023-04-07T00:14:21;96852.13;;;4.90;90.36
55263;BME280;41125;48.752;9.168;2023-04-07T00:14:52;96853.75;;;4.91;89.61
55263;BME280;41125;48.752;9.168;2023-04-07T00:15:24;96852.19;;;4.95;89.21
55263;BME280;41125;48.752;9.168;2023-04-07T00:15:55;96857.31;;;4.96;89.29
55263;BME280;41125;48.752;9.168;2023-04-07T00:16:26;96852.75;;;4.97;89.14
55263;BME280;41125;48.752;9.168;2023-04-07T00:16:58;96851.13;;;4.96;88.63
55263;BME280;41125;48.752;9.168;2023-04-07T00:17:29;96851.94;;;4.96;89.03
55263;BME280;41125;48.752;9.168;2023-04-07T00:18:02;96849.50;;;4.95;89.02
55263;BME280;41125;48.752;9.168;2023-04-07T00:18:33;96844.13;;;4.95;88.23
55263;BME280;41125;48.752;9.168;2023-04-07T00:19:06;96845.75;;;4.96;88.29
55263;BME280;41125;48.752;9.168;2023-04-07T00:19:37;96850.06;;;4.97;88.72
55263;BME280;41125;48.752;9.168;2023-04-07T00:20:09;96854.63;;;4.96;89.22
55263;BME280;41125;48.752;9.168;2023-04-07T00:20:41;96846.25;;;4.93;90.07
55263;BME280;41125;48.752;9.168;2023-04-07T00:21:12;96843.00;;;4.91;90.02
55263;BME280;41125;48.752;9.168;2023-04-07T00:21:44;96843.00;;;4.91;89.86
55263;BME280;41125;48.752;9.168;2023-04-07T00:22:15;96852.13;;;4.90;90.27
55263;BME280;41125;48.752;9.168;2023-04-07T00:22:48;96845.13;;;4.89;90.39
55263;BME280;41125;48.752;9.168;2023-04-07T00:23:19;96845.13;;;4.89;90.99
55263;BME280;41125;48.752;9.168;2023-04-07T00:23:52;96847.81;;;4.89;91.12
55263;BME280;41125;48.752;9.168;2023-04-07T00:24:24;96845.13;;;4.89;89.88
55263;BME280;41125;48.752;9.168;2023-04-07T00:24:55;96845.13;;;4.89;89.45
55263;BME280;41125;48.752;9.168;2023-04-07T00:25:27;96848.38;;;4.91;89.34
55263;BME280;41125;48.752;9.168;2023-04-07T00:25:58;96844.63;;;4.92;89.31
55263;BME280;41125;48.752;9.168;2023-04-07T00:26:30;96851.63;;;4.93;89.91
55263;BME280;41125;48.752;9.168;2023-04-07T00:27:03;96844.06;;;4.90;90.33
55263;BME280;41125;48.752;9.168;2023-04-07T00:27:34;96845.75;;;4.96;89.74
55263;BME280;41125;48.752;9.168;2023-04-07T00:28:08;96844.13;;;4.95;89.27
55263;BME280;41125;48.752;9.168;2023-04-07T00:28:40;96838.75;;;4.95;89.25
55263;BME280;41125;48.752;9.168;2023-04-07T00:29:11;96841.69;;;4.93;89.71
55263;BME280;41125;48.752;9.168;2023-04-07T00:29:42;96845.13;;;4.89;90.34
55263;BME280;41125;48.752;9.168;2023-04-07T00:30:16;96841.91;;;4.87;90.61
55263;BME280;41125;48.752;9.168;2023-04-07T00:30:48;96837.59;;;4.86;89.94
55263;BME280;41125;48.752;9.168;2023-04-07T00:31:19;96833.31;;;4.85;89.94
55263;BME280;41125;48.752;9.168;2023-04-07T00:31:51;96838.69;;;4.85;90.38
55263;BME280;41125;48.752;9.168;2023-04-07T00:32:22;96839.75;;;4.84;90.33
55263;BME280;41125;48.752;9.168;2023-04-07T00:32:53;96833.56;;;4.83;90.82
55263;BME280;41125;48.752;9.168;2023-04-07T00:33:25;96833.81;;;4.82;90.85
55263;BME280;41125;48.752;9.168;2023-04-07T00:33:56;96831.37;;;4.80;90.11
55263;BME280;41125;48.752;9.168;2023-04-07T00:34:27;96831.37;;;4.80;89.28
55263;BME280;41125;48.752;9.168;2023-04-07T00:34:58;96833.81;;;4.82;89.31
55263;BME280;41125;48.752;9.168;2023-04-07T00:35:30;96833.56;;;4.83;89.88
55263;BME280;41125;48.752;9.168;2023-04-07T00:36:02;96826.31;;;4.84;89.82
55263;BME280;41125;48.752;9.168;2023-04-07T00:36:33;96819.81;;;4.80;89.43
55263;BME280;41125;48.752;9.168;2023-04-07T00:37:05;96830.06;;;4.83;89.88
55263;BME280;41125;48.752;9.168;2023-04-07T00:37:39;96827.38;;;4.83;90.45
55263;BME280;41125;48.752;9.168;2023-04-07T00:38:10;96828.19;;;4.83;90.62
55263;BME280;41125;48.752;9.168;2023-04-07T00:38:42;96824.69;;;4.83;90.61
55263;BME280;41125;48.752;9.168;2023-04-07T00:39:14;96823.88;;;4.82;91.08
55263;BME280;41125;48.752;9.168;2023-04-07T00:39:45;96828.44;;;4.82;90.76
55263;BME280;41125;48.752;9.168;2023-04-07T00:40:16;96823.31;;;4.80;91.55
55263;BME280;41125;48.752;9.168;2023-04-07T00:40:48;96821.69;;;4.79;92.22
55263;BME280;41125;48.752;9.168;2023-04-07T00:41:19;96821.16;;;4.77;92.10
55263;BME280;41125;48.752;9.168;2023-04-07T00:41:50;96819.28;;;4.78;92.12
55263;BME280;41125;48.752;9.168;2023-04-07T00:42:22;96819.28;;;4.78;92.09
55263;BME280;41125;48.752;9.168;2023-04-07T00:42:53;96826.53;;;4.77;91.72
55263;BME280;41125;48.752;9.168;2023-04-07T00:43:24;96821.97;;;4.78;92.12
55263;BME280;41125;48.752;9.168;2023-04-07T00:43:56;96818.22;;;4.79;91.49
55263;BME280;41125;48.752;9.168;2023-04-07T00:44:28;96823.59;;;4.79;91.88
55263;BME280;41125;48.752;9.168;2023-04-07T00:44:59;96823.59;;;4.79;91.70
55263;BME280;41125;48.752;9.168;2023-04-07T00:45:31;96814.44;;;4.80;91.57
55263;BME280;41125;48.752;9.168;2023-04-07T00:46:02;96824.94;;;4.81;90.71
55263;BME280;41125;48.752;9.168;2023-04-07T00:46:34;96822.81;;;4.83;90.41
55263;BME280;41125;48.752;9.168;2023-04-07T00:47:05;96809.63;;;4.82;90.63
55263;BME280;41125;48.752;9.168;2023-04-07T00:47:37;96813.94;;;4.83;91.20
55263;BME280;41125;48.752;9.168;2023-04-07T00:48:09;96816.63;;;4.83;90.52
55263;BME280;41125;48.752;9.168;2023-04-07T00:48:41;96811.50;;;4.86;89.61
55263;BME280;41125;48.752;9.168;2023-04-07T00:49:12;96812.91;;;4.94;89.24
55263;BME280;41125;48.752;9.168;2023-04-07T00:49:43;96812.16;;;4.98;88.88
55263;BME280;41125;48.752;9.168;2023-04-07T00:50:15;96812.97;;;4.99;88.85
55263;BME280;41125;48.752;9.168;2023-04-07T00:50:46;96814.56;;;5.00;88.64
55263;BME280;41125;48.752;9.168;2023-04-07T00:51:20;96814.56;;;5.00;88.51
55263;BME280;41125;48.752;9.168;2023-04-07T00:51:57;96816.19;;;5.01;88.42
55263;BME280;41125;48.752;9.168;2023-04-07T00:52:28;96815.37;;;5.00;88.97
55263;BME280;41125;48.752;9.168;2023-04-07T00:53:01;96810.53;;;4.97;89.12
55263;BME280;41125;48.752;9.168;2023-04-07T00:53:34;96817.22;;;4.95;90.23
55263;BME280;41125;48.752;9.168;2023-04-07T00:54:05;96813.19;;;4.92;90.31
55263;BME280;41125;48.752;9.168;2023-04-07T00:54:38;96811.81;;;4.90;89.98
55263;BME280;41125;48.752;9.168;2023-04-07T00:55:10;96812.88;;;4.89;89.96
55263;BME280;41125;48.752;9.168;2023-04-07T00:55:41;96804.81;;;4.89;90.50
55263;BME280;41125;48.752;9.168;2023-04-07T00:56:12;96805.41;;;4.96;90.26
55263;BME280;41125;48.752;9.168;2023-04-07T00:56:44;96807.03;;;4.97;89.81
55263;BME280;41125;48.752;9.168;2023-04-07T00:57:17;96808.09;;;4.96;89.66
55263;BME280;41125;48.752;9.168;2023-04-07T00:57:50;96808.09;;;4.96;89.46
55263;BME280;41125;48.752;9.168;2023-04-07T00:58:22;96807.03;;;4.97;89.50
55263;BME280;41125;48.752;9.168;2023-04-07T00:58:54;96806.47;;;4.95;89.13
55263;BME280;41125;48.752;9.168;2023-04-07T00:59:26;96801.09;;;4.95;89.26
55263;BME280;41125;48.752;9.168;2023-04-07T00:59:59;96803.53;;;4.96;89.15
55263;BME280;41125;48.752;9.168;2023-04-07T01:00:33;96808.09;;;4.96;89.00
55263;BME280;41125;48.752;9.168;2023-04-07T01:01:15;96798.41;;;4.95;88.90
55263;BME280;41125;48.752;9.168;2023-04-07T01:03:21;96798.66;;;4.93;89.88
55263;BME280;41125;48.752;9.168;2023-04-07T01:04:08;96800.00;;;4.91;89.76
55263;BME280;41125;48.752;9.168;2023-04-07T01:04:55;96802.13;;;4.89;90.05
55263;BME280;41125;48.752;9.168;2023-04-07T01:05:42;96797.25;;;4.86;90.59
55263;BME280;41125;48.752;9.168;2023-04-07T01:06:20;96799.44;;;4.84;90.80
55263;BME280;41125;48.752;9.168;2023-04-07T01:06:58;96794.56;;;4.81;91.27
55263;BME280;41125;48.752;9.168;2023-04-07T01:08:58;96790.25;;;4.80;90.15
55263;BME280;41125;48.752;9.168;2023-04-07T01:09:44;96794.56;;;4.81;89.80
55263;BME280;41125;48.752;9.168;2023-04-07T01:10:25;96787.56;;;4.80;90.11
55263;BME280;41125;48.752;9.168;2023-04-07T01:11:27;96790.28;;;4.85;89.80
55263;BME280;41125;48.752;9.168;2023-04-07T01:12:17;96790.28;;;4.85;90.20
55263;BME280;41125;48.752;9.168;2023-04-07T01:13:02;96787.59;;;4.85;90.59
55263;BME280;41125;48.752;9.168;2023-04-07T01:13:48;96791.63;;;4.82;90.71
55263;BME280;41125;48.752;9.168;2023-04-07T01:14:19;96785.44;;;4.82;90.13
55263;BME280;41125;48.752;9.168;2023-04-07T01:14:57;96780.06;;;4.82;90.64
55263;BME280;41125;48.752;9.168;2023-04-07T01:15:30;96788.38;;;4.80;91.22
55263;BME280;41125;48.752;9.168;2023-04-07T01:16:08;96791.87;;;4.81;90.67
55263;BME280;41125;48.752;9.168;2023-04-07T01:16:50;96783.81;;;4.81;90.92
55263;BME280;41125;48.752;9.168;2023-04-07T01:17:24;96787.56;;;4.80;90.67
55263;BME280;41125;48.752;9.168;2023-04-07T01:18:05;96788.62;;;4.79;90.91
55263;BME280;41125;48.752;9.168;2023-04-07T01:18:39;96782.19;;;4.80;90.85
55263;BME280;41125;48.752;9.168;2023-04-07T01:19:53;96778.94;;;4.78;90.37
55263;BME280;41125;48.752;9.168;2023-04-07T01:20:31;96782.44;;;4.78;90.11
55263;BME280;41125;48.752;9.168;2023-04-07T01:21:06;96780.56;;;4.79;90.65
55263;BME280;41125;48.752;9.168;2023-04-07T01:21:39;96778.16;;;4.77;91.37
55263;BME280;41125;48.752;9.168;2023-04-07T01:22:15;96777.34;;;4.77;91.05
55263;BME280;41125;48.752;9.168;2023-04-07T01:22:56;96778.66;;;4.74;90.84
55263;BME280;41125;48.752;9.168;2023-04-07T01:24:05;96785.44;;;4.82;90.32
55263;BME280;41125;48.752;9.168;2023-04-07T01:25:16;96774.94;;;4.85;90.00
55263;BME280;41125;48.752;9.168;2023-04-07T01:26:03;96771.47;;;4.90;89.47
55263;BME280;41125;48.752;9.168;2023-04-07T01:26:38;96778.47;;;4.91;89.28
55263;BME280;41125;48.752;9.168;2023-04-07T01:29:36;96780.88;;;4.87;89.75
55263;BME280;41125;48.752;9.168;2023-04-07T01:30:13;96782.75;;;4.87;90.13
55263;BME280;41125;48.752;9.168;2023-04-07T01:30:48;96780.31;;;4.85;90.03
55263;BME280;41125;48.752;9.168;2023-04-07T01:31:22;96775.75;;;4.86;90.18
55263;BME280;41125;48.752;9.168;2023-04-07T01:31:58;96780.59;;;4.84;89.90
55263;BME280;41125;48.752;9.168;2023-04-07T01:32:36;96774.69;;;4.82;90.98
55263;BME280;41125;48.752;9.168;2023-04-07T01:33:10;96785.44;;;4.82;91.05
55263;BME280;41125;48.752;9.168;2023-04-07T01:33:44;96780.06;;;4.82;90.74
55263;BME280;41125;48.752;9.168;2023-04-07T01:34:16;96779.50;;;4.80;90.89
55263;BME280;41125;48.752;9.168;2023-04-07T01:34:49;96781.38;;;4.79;91.25
55263;BME280;41125;48.752;9.168;2023-04-07T01:35:23;96776.25;;;4.78;91.22
55263;BME280;41125;48.752;9.168;2023-04-07T01:35:58;96769.28;;;4.77;91.58
55263;BME280;41125;48.752;9.168;2023-04-07T01:36:32;96778.41;;;4.76;91.24
55263;BME280;41125;48.752;9.168;2023-04-07T01:37:05;96768.72;;;4.75;91.17
55263;BME280;41125;48.752;9.168;2023-04-07T01:37:37;96774.09;;;4.75;91.32
55263;BME280;41125;48.752;9.168;2023-04-07T01:38:09;96777.84;;;4.74;91.60
55263;BME280;41125;48.752;9.168;2023-04-07T01:38:43;96771.66;;;4.73;91.50
55263;BME280;41125;48.752;9.168;2023-04-07T01:39:14;96775.97;;;4.74;91.30
55263;BME280;41125;48.752;9.168;2023-04-07T01:39:46;96765.78;;;4.76;90.88
55263;BME280;41125;48.752;9.168;2023-04-07T01:40:20;96769.81;;;4.79;90.62
55263;BME280;41125;48.752;9.168;2023-04-07T01:40:54;96773.06;;;4.81;90.31
55263;BME280;41125;48.752;9.168;2023-04-07T01:41:26;96769.03;;;4.83;90.25
55263;BME280;41125;48.752;9.168;2023-04-07T01:41:58;96774.16;;;4.85;89.49
55263;BME280;41125;48.752;9.168;2023-04-07T01:42:33;96774.69;;;4.87;89.43
55263;BME280;41125;48.752;9.168;2023-04-07T01:43:07;96765.00;;;4.86;89.50
55263;BME280;41125;48.752;9.168;2023-04-07T01:43:39;96766.63;;;4.87;89.38
55263;BME280;41125;48.752;9.168;2023-04-07T01:44:11;96763.94;;;4.87;88.99
55263;BME280;41125;48.752;9.168;2023-04-07T01:44:45;96765.00;;;4.86;89.11
55263;BME280;41125;48.752;9.168;2023-04-07T01:45:19;96771.19;;;4.86;89.21
55263;BME280;41125;48.752;9.168;2023-04-07T01:45:53;96769.34;;;4.92;88.97
55263;BME280;41125;48.752;9.168;2023-04-07T01:46:26;96768.81;;;4.95;88.65
55263;BME280;41125;48.752;9.168;2023-04-07T01:46:59;96762.37;;;4.96;88.59
55263;BME280;41125;48.752;9.168;2023-04-07T01:47:35;96761.06;;;4.98;88.60
55263;BME280;41125;48.752;9.168;2023-04-07T01:48:10;96763.50;;;5.00;88.57
55263;BME280;41125;48.752;9.168;2023-04-07T01:48:45;96757.03;;;5.01;88.57
55263;BME280;41125;48.752;9.168;2023-04-07T01:49:22;96757.03;;;5.01;87.95
55263;BME280;41125;48.752;9.168;2023-04-07T01:49:57;96759.72;;;5.01;88.11
55263;BME280;41125;48.752;9.168;2023-04-07T01:50:29;96760.28;;;5.03;87.79
55263;BME280;41125;48.752;9.168;2023-04-07T01:51:00;96761.91;;;5.04;87.83
55263;BME280;41125;48.752;9.168;2023-04-07T01:51:33;96753.84;;;5.04;87.48
55263;BME280;41125;48.752;9.168;2023-04-07T01:52:07;96749.53;;;5.03;87.53
55263;BME280;41125;48.752;9.168;2023-04-07T01:52:41;96754.37;;;5.06;87.81
55263;BME280;41125;48.752;9.168;2023-04-07T01:53:14;96762.44;;;5.06;87.70
55263;BME280;41125;48.752;9.168;2023-04-07T01:53:46;96758.69;;;5.07;87.48
55263;BME280;41125;48.752;9.168;2023-04-07T01:54:19;96752.75;;;5.05;87.84
55263;BME280;41125;48.752;9.168;2023-04-07T01:54:53;96754.91;;;5.03;87.61
55263;BME280;41125;48.752;9.168;2023-04-07T01:55:25;96759.47;;;5.02;87.98
55263;BME280;41125;48.752;9.168;2023-04-07T01:55:56;96754.09;;;5.02;87.75
55263;BME280;41125;48.752;9.168;2023-04-07T01:56:27;96758.66;;;5.02;87.82
55263;BME280;41125;48.752;9.168;2023-04-07T01:56:59;96753.28;;;5.02;87.81
55263;BME280;41125;48.752;9.168;2023-04-07T01:57:31;96759.22;;;5.04;87.50
55263;BME280;41125;48.752;9.168;2023-04-07T01:58:04;96756.53;;;5.04;87.64
55263;BME280;41125;48.752;9.168;2023-04-07T01:58:36;96747.91;;;5.02;87.61
55263;BME280;41125;48.752;9.168;2023-04-07T01:59:07;96754.91;;;5.03;87.53
55263;BME280;41125;48.752;9.168;2023-04-07T01:59:38;96753.28;;;5.02;87.70
55263;BME280;41125;48.752;9.168;2023-04-07T02:00:11;96751.66;;;5.01;87.59
55263;BME280;41125;48.752;9.168;2023-04-07T02:00:42;96751.91;;;4.99;87.95
55263;BME280;41125;48.752;9.168;2023-04-07T02:01:14;96755.41;;;5.00;87.84
55263;BME280;41125;48.752;9.168;2023-04-07T02:01:45;96757.03;;;5.01;87.59
55263;BME280;41125;48.752;9.168;2023-04-07T02:02:18;96753.81;;;4.99;88.09
55263;BME280;41125;48.752;9.168;2023-04-07T02:02:54;96752.72;;;5.00;87.67
55263;BME280;41125;48.752;9.168;2023-04-07T02:03:42;96756.22;;;5.00;88.24
55263;BME280;41125;48.752;9.168;2023-04-07T02:04:31;96755.13;;;4.96;88.93
55263;BME280;41125;48.752;9.168;2023-04-07T02:05:14;96758.88;;;4.95;88.24
55263;BME280;41125;48.752;9.168;2023-04-07T02:05:52;96755.66;;;4.93;87.97
55263;BME280;41125;48.752;9.168;2023-04-07T02:06:32;96746.78;;;4.93;87.98
55263;BME280;41125;48.752;9.168;2023-04-07T02:07:12;96752.41;;;4.91;88.35
55263;BME280;41125;48.752;9.168;2023-04-07T02:07:57;96756.41;;;4.89;88.44
55263;BME280;41125;48.752;9.168;2023-04-07T02:08:30;96754.81;;;4.88;88.35
55263;BME280;41125;48.752;9.168;2023-04-07T02:09:06;96758.31;;;4.88;88.26
55263;BME280;41125;48.752;9.168;2023-04-07T02:09:39;96758.56;;;4.87;88.50
55263;BME280;41125;48.752;9.168;2023-04-07T02:10:14;96761.25;;;4.87;88.22
55263;BME280;41125;48.752;9.168;2023-04-07T02:10:47;96755.59;;;4.88;88.40
55263;BME280;41125;48.752;9.168;2023-04-07T02:11:21;96755.34;;;4.90;88.56
55263;BME280;41125;48.752;9.168;2023-04-07T02:11:58;96749.97;;;4.90;88.70
55263;BME280;41125;48.752;9.168;2023-04-07T02:12:30;96747.84;;;4.92;88.58
55263;BME280;41125;48.752;9.168;2023-04-07T02:13:05;96751.63;;;4.96;88.32
55263;BME280;41125;48.752;9.168;2023-04-07T02:13:39;96747.88;;;4.97;87.75
55263;BME280;41125;48.752;9.168;2023-04-07T02:14:13;96747.34;;;5.00;88.09
55263;BME280;41125;48.752;9.168;2023-04-07T02:14:47;96744.16;;;5.03;87.49
55263;BME280;41125;48.752;9.168;2023-04-07T02:15:19;96750.06;;;5.05;87.95
55263;BME280;41125;48.752;9.168;2023-04-07T02:15:53;96745.75;;;5.04;87.74
55263;BME280;41125;48.752;9.168;2023-04-07T02:16:28;96744.16;;;5.03;87.61
55263;BME280;41125;48.752;9.168;2023-04-07T02:17:00;96743.03;;;4.99;87.93
55263;BME280;41125;48.752;9.168;2023-04-07T02:17:35;96742.25;;;4.98;87.64
55263;BME280;41125;48.752;9.168;2023-04-07T02:18:09;96748.41;;;4.99;87.67
55263;BME280;41125;48.752;9.168;2023-04-07T02:18:45;96744.66;;;5.00;87.76
55263;BME280;41125;48.752;9.168;2023-04-07T02:19:18;96746.53;;;4.99;87.64
55263;BME280;41125;48.752;9.168;2023-04-07T02:19:50;96747.34;;;5.00;87.61
55263;BME280;41125;48.752;9.168;2023-04-07T02:20:23;96738.78;;;5.03;87.80
55263;BME280;41125;48.752;9.168;2023-04-07T02:20:55;96746.56;;;5.04;87.76
55263;BME280;41125;48.752;9.168;2023-04-07T02:21:28;96738.78;;;5.03;87.51
55263;BME280;41125;48.752;9.168;2023-04-07T02:22:02;96746.28;;;5.01;87.88
55263;BME280;41125;48.752;9.168;2023-04-07T02:22:37;96741.44;;;4.98;88.06
55263;BME280;41125;48.752;9.168;2023-04-07T02:23:09;96738.19;;;4.96;88.65
55263;BME280;41125;48.752;9.168;2023-04-07T02:23:41;96737.63;;;4.94;88.32
55263;BME280;41125;48.752;9.168;2023-04-07T02:24:12;96740.31;;;4.94;88.60
55263;BME280;41125;48.752;9.168;2023-04-07T02:24:43;96741.94;;;4.95;88.47
55263;BME280;41125;48.752;9.168;2023-04-07T02:25:31;96740.63;;;4.97;88.22
55263;BME280;41125;48.752;9.168;2023-04-07T02:26:04;96737.66;;;4.99;88.16
55263;BME280;41125;48.752;9.168;2023-04-07T02:26:35;96739.28;;;5.00;88.37
55263;BME280;41125;48.752;9.168;2023-04-07T02:27:10;96730.13;;;4.96;88.69
55263;BME280;41125;48.752;9.168;2023-04-07T02:27:41;96733.06;;;4.94;88.45
55263;BME280;41125;48.752;9.168;2023-04-07T02:28:12;96736.00;;;4.93;88.24
55263;BME280;41125;48.752;9.168;2023-04-07T02:28:44;96733.06;;;4.94;88.46
55263;BME280;41125;48.752;9.168;2023-04-07T02:29:15;96735.50;;;4.96;88.64
55263;BME280;41125;48.752;9.168;2023-04-07T02:29:46;96736.31;;;4.96;88.57
55263;BME280;41125;48.752;9.168;2023-04-07T02:30:18;96735.50;;;4.96;88.58
55263;BME280;41125;48.752;9.168;2023-04-07T02:30:49;96736.03;;;4.98;88.59
55263;BME280;41125;48.752;9.168;2023-04-07T02:31:21;96733.91;;;5.00;88.07
55263;BME280;41125;48.752;9.168;2023-04-07T02:31:52;96735.53;;;5.01;88.29
55263;BME280;41125;48.752;9.168;2023-04-07T02:32:23;96739.03;;;5.01;88.31
55263;BME280;41125;48.752;9.168;2023-04-07T02:32:55;96733.38;;;5.03;88.41
55263;BME280;41125;48.752;9.168;2023-04-07T02:33:26;96734.19;;;5.03;87.90
55263;BME280;41125;48.752;9.168;2023-04-07T02:33:58;96727.19;;;5.02;87.70
55263;BME280;41125;48.752;9.168;2023-04-07T02:34:29;96728.00;;;5.03;87.49
55263;BME280;41125;48.752;9.168;2023-04-07T02:35:00;96724.81;;;5.06;87.41
55263;BME280;41125;48.752;9.168;2023-04-07T02:35:31;96722.16;;;5.11;86.94
55263;BME280;41125;48.752;9.168;2023-04-07T02:36:03;96732.91;;;5.11;86.96
55263;BME280;41125;48.752;9.168;2023-04-07T02:36:34;96732.34;;;5.09;86.84
55263;BME280;41125;48.752;9.168;2023-04-07T02:37:05;96727.22;;;5.08;86.85
55263;BME280;41125;48.752;9.168;2023-04-07T02:37:37;96725.88;;;5.05;86.51
55263;BME280;41125;48.752;9.168;2023-04-07T02:38:09;96728.00;;;5.03;86.75
55263;BME280;41125;48.752;9.168;2023-04-07T02:38:41;96716.69;;;5.01;86.66
55263;BME280;41125;48.752;9.168;2023-04-07T02:39:12;96724.78;;;5.01;86.87
55263;BME280;41125;48.752;9.168;2023-04-07T02:39:43;96722.63;;;5.03;86.83
55263;BME280;41125;48.752;9.168;2023-04-07T02:40:14;96722.13;;;5.06;86.90
55263;BME280;41125;48.752;9.168;2023-04-07T02:40:46;96728.59;;;5.10;86.90
55263;BME280;41125;48.752;9.168;2023-04-07T02:41:17;96723.72;;;5.07;86.94
55263;BME280;41125;48.752;9.168;2023-04-07T02:41:48;96726.97;;;5.09;86.72
55263;BME280;41125;48.752;9.168;2023-04-07T02:42:20;96721.03;;;5.07;86.62
55263;BME280;41125;48.752;9.168;2023-04-07T02:42:51;96719.44;;;5.06;86.33
55263;BME280;41125;48.752;9.168;2023-04-07T02:43:22;96726.94;;;5.04;86.49
55263;BME280;41125;48.752;9.168;2023-04-07T02:43:55;96714.31;;;5.04;86.63
55263;BME280;41125;48.752;9.168;2023-04-07T02:44:26;96721.31;;;5.05;86.61
55263;BME280;41125;48.752;9.168;2023-04-07T02:44:58;96721.31;;;5.05;86.76
55263;BME280;41125;48.752;9.168;2023-04-07T02:45:29;96725.06;;;5.04;86.77
55263;BME280;41125;48.752;9.168;2023-04-07T02:46:00;96726.38;;;5.02;86.99
55263;BME280;41125;48.752;9.168;2023-04-07T02:46:32;96720.72;;;4.98;87.94
55263;BME280;41125;48.752;9.168;2023-04-07T02:47:03;96720.97;;;4.97;87.87
55263;BME280;41125;48.752;9.168;2023-04-07T02:47:35;96720.69;;;4.93;88.36
55263;BME280;41125;48.752;9.168;2023-04-07T02:48:07;96715.56;;;4.92;88.40
55263;BME280;41125;48.752;9.168;2023-04-07T02:48:38;96719.34;;;4.91;88.22
55263;BME280;41125;48.752;9.168;2023-04-07T02:49:09;96716.37;;;4.92;88.18
55263;BME280;41125;48.752;9.168;2023-04-07T02:49:40;96729.56;;;4.94;88.05
55263;BME280;41125;48.752;9.168;2023-04-07T02:50:12;96717.50;;;4.96;87.54
55263;BME280;41125;48.752;9.168;2023-04-07T02:50:43;96720.19;;;4.96;87.63
55263;BME280;41125;48.752;9.168;2023-04-07T02:51:14;96709.69;;;4.95;87.76
55263;BME280;41125;48.752;9.168;2023-04-07T02:51:46;96716.69;;;4.96;88.34
55263;BME280;41125;48.752;9.168;2023-04-07T02:52:17;96712.91;;;4.97;87.63
55263;BME280;41125;48.752;9.168;2023-04-07T02:52:48;96718.28;;;4.97;87.62
55263;BME280;41125;48.752;9.168;2023-04-07T02:53:20;96716.41;;;4.97;87.57
55263;BME280;41125;48.752;9.168;2023-04-07T02:53:51;96712.91;;;4.97;87.57
55263;BME280;41125;48.752;9.168;2023-04-07T02:54:23;96718.28;;;4.97;87.50
55263;BME280;41125;48.752;9.168;2023-04-07T02:54:54;96713.72;;;4.97;87.58
55263;BME280;41125;48.752;9.168;2023-04-07T02:55:25;96705.91;;;4.96;87.83
55263;BME280;41125;48.752;9.168;2023-04-07T02:55:57;96710.78;;;4.99;87.98
55263;BME280;41125;48.752;9.168;2023-04-07T02:56:28;96708.91;;;4.99;87.36
55263;BME280;41125;48.752;9.168;2023-04-07T02:56:59;96708.63;;;5.01;87.39
55263;BME280;41125;48.752;9.168;2023-04-07T02:57:31;96708.63;;;5.01;87.55
55263;BME280;41125;48.752;9.168;2023-04-07T02:58:02;96711.84;;;4.98;87.58
55263;BME280;41125;48.752;9.168;2023-04-07T02:58:33;96715.59;;;4.97;87.41
55263;BME280;41125;48.752;9.168;2023-04-07T02:59:05;96705.91;;;4.96;87.28
55263;BME280;41125;48.752;9.168;2023-04-07T02:59:37;96713.19;;;4.95;87.15
55263;BME280;41125;48.752;9.168;2023-04-07T03:00:09;96711.28;;;4.96;87.10
55263;BME280;41125;48.752;9.168;2023-04-07T03:00:40;96704.84;;;4.97;86.95
55263;BME280;41125;48.752;9.168;2023-04-07T03:01:11;96704.59;;;4.98;87.06
55263;BME280;41125;48.752;9.168;2023-04-07T03:01:42;96712.41;;;5.00;87.13
55263;BME280;41125;48.752;9.168;2023-04-07T03:03:22;96701.94;;;5.03;86.64
55263;BME280;41125;48.752;9.168;2023-04-07T03:03:53;96707.03;;;5.05;87.06
55263;BME280;41125;48.752;9.168;2023-04-07T03:04:25;96705.97;;;5.06;86.52
55263;BME280;41125;48.752;9.168;2023-04-07T03:04:56;96705.47;;;5.09;86.24
55263;BME280;41125;48.752;9.168;2023-04-07T03:05:27;96708.41;;;5.08;86.17
55263;BME280;41125;48.752;9.168;2023-04-07T03:05:58;96704.94;;;5.12;86.30
55263;BME280;41125;48.752;9.168;2023-04-07T03:06:30;96703.31;;;5.11;86.31
55263;BME280;41125;48.752;9.168;2023-04-07T03:07:04;96705.19;;;5.11;85.91